sensor_id;sensor_type;location;lat;lon;timestamp;P1;durP1;ratioP1;P2;durP2;ratioP2
52188;SDS011;38162;45.926;13.608;2023-10-31T00:00:05;22.55;;;4.32;;
52188;SDS011;38162;45.926;13.608;2023-10-31T00:02:31;20.48;;;5.75;;
52188;SDS011;38162;45.926;13.608;2023-10-31T00:04:57;19.67;;;4.90;;
52188;SDS011;38162;45.926;13.608;2023-10-31T00:07:23;22.83;;;4.20;;
52188;SDS011;38162;45.926;13.608;2023-10-31T00:09:49;24.17;;;4.75;;
52188;SDS011;38162;45.926;13.608;2023-10-31T00:12:14;21.58;;;4.43;;
52188;SDS011;38162;45.926;13.608;2023-10-31T00:14:40;28.63;;;5.82;;
52188;SDS011;38162;45.926;13.608;2023-10-31T00:17:06;17.98;;;4.05;;
52188;SDS011;38162;45.926;13.608;2023-10-31T00:19:32;14.25;;;4.05;;
52188;SDS011;38162;45.926;13.608;2023-10-31T00:21:58;14.80;;;4.18;;
52188;SDS011;38162;45.926;13.608;2023-10-31T00:24:23;14.25;;;3.53;;
52188;SDS011;38162;45.926;13.608;2023-10-31T00:26:49;14.43;;;3.33;;
52188;SDS011;38162;45.926;13.608;2023-10-31T00:29:16;17.58;;;3.40;;
52188;SDS011;38162;45.926;13.608;2023-10-31T00:31:42;12.68;;;2.88;;
52188;SDS011;38162;45.926;13.608;2023-10-31T00:34:08;11.68;;;3.30;;
52188;SDS011;38162;45.926;13.608;2023-10-31T00:36:35;13.90;;;2.75;;
52188;SDS011;38162;45.926;13.608;2023-10-31T00:39:00;13.18;;;3.05;;
52188;SDS011;38162;45.926;13.608;2023-10-31T00:41:26;13.77;;;3.00;;
52188;SDS011;38162;45.926;13.608;2023-10-31T00:43:52;15.20;;;3.15;;
52188;SDS011;38162;45.926;13.608;2023-10-31T00:46:18;15.70;;;4.07;;
52188;SDS011;38162;45.926;13.608;2023-10-31T00:48:47;13.60;;;3.55;;
52188;SDS011;38162;45.926;13.608;2023-10-31T00:51:13;16.02;;;3.38;;
52188;SDS011;38162;45.926;13.608;2023-10-31T00:53:39;18.40;;;4.20;;
52188;SDS011;38162;45.926;13.608;2023-10-31T00:56:05;19.92;;;4.45;;
52188;SDS011;38162;45.926;13.608;2023-10-31T00:58:31;17.45;;;3.75;;
52188;SDS011;38162;45.926;13.608;2023-10-31T01:00:57;14.73;;;2.97;;
52188;SDS011;38162;45.926;13.608;2023-10-31T01:03:23;20.67;;;4.25;;
52188;SDS011;38162;45.926;13.608;2023-10-31T01:05:49;20.90;;;4.53;;
52188;SDS011;38162;45.926;13.608;2023-10-31T01:08:15;13.48;;;2.50;;
52188;SDS011;38162;45.926;13.608;2023-10-31T01:10:41;14.90;;;3.15;;
52188;SDS011;38162;45.926;13.608;2023-10-31T01:13:07;14.15;;;3.13;;
52188;SDS011;38162;45.926;13.608;2023-10-31T01:15:32;15.23;;;3.05;;
52188;SDS011;38162;45.926;13.608;2023-10-31T01:17:58;22.88;;;3.58;;
52188;SDS011;38162;45.926;13.608;2023-10-31T01:20:24;21.30;;;3.92;;
52188;SDS011;38162;45.926;13.608;2023-10-31T01:22:50;21.10;;;3.65;;
52188;SDS011;38162;45.926;13.608;2023-10-31T01:25:18;18.25;;;3.00;;
52188;SDS011;38162;45.926;13.608;2023-10-31T01:27:44;16.25;;;2.80;;
52188;SDS011;38162;45.926;13.608;2023-10-31T01:30:10;23.90;;;4.32;;
52188;SDS011;38162;45.926;13.608;2023-10-31T01:32:37;18.02;;;2.63;;
52188;SDS011;38162;45.926;13.608;2023-10-31T01:35:03;19.13;;;3.50;;
52188;SDS011;38162;45.926;13.608;2023-10-31T01:37:30;14.32;;;2.35;;
52188;SDS011;38162;45.926;13.608;2023-10-31T01:39:56;13.60;;;2.58;;
52188;SDS011;38162;45.926;13.608;2023-10-31T01:42:22;14.32;;;2.35;;
52188;SDS011;38162;45.926;13.608;2023-10-31T01:44:48;23.52;;;3.08;;
52188;SDS011;38162;45.926;13.608;2023-10-31T01:47:14;20.83;;;2.70;;
52188;SDS011;38162;45.926;13.608;2023-10-31T01:49:40;20.17;;;3.83;;
52188;SDS011;38162;45.926;13.608;2023-10-31T01:52:06;29.13;;;3.92;;
52188;SDS011;38162;45.926;13.608;2023-10-31T01:54:33;17.88;;;3.72;;
52188;SDS011;38162;45.926;13.608;2023-10-31T01:57:00;29.42;;;4.30;;
52188;SDS011;38162;45.926;13.608;2023-10-31T01:59:27;32.13;;;4.43;;
52188;SDS011;38162;45.926;13.608;2023-10-31T02:01:54;24.73;;;3.92;;
52188;SDS011;38162;45.926;13.608;2023-10-31T02:04:22;30.88;;;4.40;;
52188;SDS011;38162;45.926;13.608;2023-10-31T02:06:49;37.33;;;6.63;;
52188;SDS011;38162;45.926;13.608;2023-10-31T02:09:15;32.75;;;4.68;;
52188;SDS011;38162;45.926;13.608;2023-10-31T02:11:41;35.05;;;5.60;;
52188;SDS011;38162;45.926;13.608;2023-10-31T02:14:07;31.10;;;5.75;;
52188;SDS011;38162;45.926;13.608;2023-10-31T02:16:32;36.47;;;5.45;;
52188;SDS011;38162;45.926;13.608;2023-10-31T02:18:58;36.70;;;5.85;;
52188;SDS011;38162;45.926;13.608;2023-10-31T02:21:24;34.22;;;5.18;;
52188;SDS011;38162;45.926;13.608;2023-10-31T02:23:55;33.78;;;5.22;;
52188;SDS011;38162;45.926;13.608;2023-10-31T02:26:31;38.83;;;5.95;;
52188;SDS011;38162;45.926;13.608;2023-10-31T02:28:58;43.22;;;5.90;;
52188;SDS011;38162;45.926;13.608;2023-10-31T02:31:24;42.00;;;5.68;;
52188;SDS011;38162;45.926;13.608;2023-10-31T02:33:51;45.78;;;6.55;;
52188;SDS011;38162;45.926;13.608;2023-10-31T02:36:17;37.55;;;6.72;;
52188;SDS011;38162;45.926;13.608;2023-10-31T02:38:43;32.20;;;5.78;;
52188;SDS011;38162;45.926;13.608;2023-10-31T02:41:09;40.45;;;6.72;;
52188;SDS011;38162;45.926;13.608;2023-10-31T02:43:35;37.97;;;6.05;;
52188;SDS011;38162;45.926;13.608;2023-10-31T02:46:02;41.03;;;5.65;;
52188;SDS011;38162;45.926;13.608;2023-10-31T02:48:28;42.67;;;6.60;;
52188;SDS011;38162;45.926;13.608;2023-10-31T02:50:54;41.10;;;6.38;;
52188;SDS011;38162;45.926;13.608;2023-10-31T02:53:20;33.05;;;6.70;;
52188;SDS011;38162;45.926;13.608;2023-10-31T02:55:46;34.30;;;6.05;;
52188;SDS011;38162;45.926;13.608;2023-10-31T02:58:12;46.65;;;6.88;;
52188;SDS011;38162;45.926;13.608;2023-10-31T03:00:38;46.58;;;8.23;;
52188;SDS011;38162;45.926;13.608;2023-10-31T03:03:04;39.55;;;6.47;;
52188;SDS011;38162;45.926;13.608;2023-10-31T03:05:30;45.00;;;8.18;;
52188;SDS011;38162;45.926;13.608;2023-10-31T03:07:55;46.85;;;8.25;;
52188;SDS011;38162;45.926;13.608;2023-10-31T03:10:21;48.47;;;7.70;;
52188;SDS011;38162;45.926;13.608;2023-10-31T03:12:47;52.53;;;7.80;;
52188;SDS011;38162;45.926;13.608;2023-10-31T03:15:13;50.78;;;7.85;;
52188;SDS011;38162;45.926;13.608;2023-10-31T03:17:39;51.97;;;9.05;;
52188;SDS011;38162;45.926;13.608;2023-10-31T03:20:05;52.65;;;9.32;;
52188;SDS011;38162;45.926;13.608;2023-10-31T03:22:34;54.38;;;8.25;;
52188;SDS011;38162;45.926;13.608;2023-10-31T03:25:00;54.90;;;7.75;;
52188;SDS011;38162;45.926;13.608;2023-10-31T03:27:26;54.25;;;7.82;;
52188;SDS011;38162;45.926;13.608;2023-10-31T03:29:52;47.85;;;8.13;;
52188;SDS011;38162;45.926;13.608;2023-10-31T03:32:20;49.20;;;7.68;;
52188;SDS011;38162;45.926;13.608;2023-10-31T03:34:46;49.63;;;9.27;;
52188;SDS011;38162;45.926;13.608;2023-10-31T03:37:12;50.72;;;8.60;;
52188;SDS011;38162;45.926;13.608;2023-10-31T03:39:37;59.90;;;10.30;;
52188;SDS011;38162;45.926;13.608;2023-10-31T03:42:03;43.58;;;8.25;;
52188;SDS011;38162;45.926;13.608;2023-10-31T03:44:30;58.88;;;9.43;;
52188;SDS011;38162;45.926;13.608;2023-10-31T03:46:56;52.28;;;9.48;;
52188;SDS011;38162;45.926;13.608;2023-10-31T03:49:22;49.25;;;9.13;;
52188;SDS011;38162;45.926;13.608;2023-10-31T03:51:48;55.08;;;8.60;;
52188;SDS011;38162;45.926;13.608;2023-10-31T03:54:13;50.83;;;8.10;;
52188;SDS011;38162;45.926;13.608;2023-10-31T03:56:40;45.55;;;7.80;;
52188;SDS011;38162;45.926;13.608;2023-10-31T03:59:07;46.63;;;7.40;;
52188;SDS011;38162;45.926;13.608;2023-10-31T04:01:33;38.65;;;7.95;;
52188;SDS011;38162;45.926;13.608;2023-10-31T04:03:58;44.25;;;7.47;;
52188;SDS011;38162;45.926;13.608;2023-10-31T04:06:24;46.90;;;7.78;;
52188;SDS011;38162;45.926;13.608;2023-10-31T04:08:50;36.88;;;7.15;;
52188;SDS011;38162;45.926;13.608;2023-10-31T04:11:16;43.45;;;8.02;;
52188;SDS011;38162;45.926;13.608;2023-10-31T04:13:42;51.28;;;7.95;;
52188;SDS011;38162;45.926;13.608;2023-10-31T04:16:07;35.33;;;6.88;;
52188;SDS011;38162;45.926;13.608;2023-10-31T04:18:33;30.35;;;6.55;;
52188;SDS011;38162;45.926;13.608;2023-10-31T04:20:59;37.65;;;7.15;;
52188;SDS011;38162;45.926;13.608;2023-10-31T04:23:25;41.80;;;7.07;;
52188;SDS011;38162;45.926;13.608;2023-10-31T04:25:53;33.92;;;6.28;;
52188;SDS011;38162;45.926;13.608;2023-10-31T04:28:19;41.50;;;7.60;;
52188;SDS011;38162;45.926;13.608;2023-10-31T04:30:45;38.88;;;7.13;;
52188;SDS011;38162;45.926;13.608;2023-10-31T04:33:11;34.92;;;6.43;;
52188;SDS011;38162;45.926;13.608;2023-10-31T04:35:36;43.55;;;6.35;;
52188;SDS011;38162;45.926;13.608;2023-10-31T04:38:02;37.60;;;6.38;;
52188;SDS011;38162;45.926;13.608;2023-10-31T04:40:28;38.72;;;7.20;;
52188;SDS011;38162;45.926;13.608;2023-10-31T04:42:54;41.83;;;7.45;;
52188;SDS011;38162;45.926;13.608;2023-10-31T04:45:20;36.40;;;6.05;;
52188;SDS011;38162;45.926;13.608;2023-10-31T04:47:46;35.95;;;6.82;;
52188;SDS011;38162;45.926;13.608;2023-10-31T04:50:12;25.98;;;5.40;;
52188;SDS011;38162;45.926;13.608;2023-10-31T04:52:37;35.00;;;6.80;;
52188;SDS011;38162;45.926;13.608;2023-10-31T04:55:03;26.70;;;5.15;;
52188;SDS011;38162;45.926;13.608;2023-10-31T04:57:29;31.45;;;6.20;;
52188;SDS011;38162;45.926;13.608;2023-10-31T04:59:56;28.63;;;5.03;;
52188;SDS011;38162;45.926;13.608;2023-10-31T05:02:26;31.08;;;6.05;;
52188;SDS011;38162;45.926;13.608;2023-10-31T05:04:53;27.63;;;5.80;;
52188;SDS011;38162;45.926;13.608;2023-10-31T05:07:22;35.20;;;5.97;;
52188;SDS011;38162;45.926;13.608;2023-10-31T05:09:48;32.30;;;6.13;;
52188;SDS011;38162;45.926;13.608;2023-10-31T05:12:14;35.80;;;5.20;;
52188;SDS011;38162;45.926;13.608;2023-10-31T05:14:40;25.00;;;4.85;;
52188;SDS011;38162;45.926;13.608;2023-10-31T05:17:06;30.50;;;6.50;;
52188;SDS011;38162;45.926;13.608;2023-10-31T05:19:32;32.67;;;6.32;;
52188;SDS011;38162;45.926;13.608;2023-10-31T05:21:58;27.65;;;5.13;;
52188;SDS011;38162;45.926;13.608;2023-10-31T05:24:23;33.47;;;6.05;;
52188;SDS011;38162;45.926;13.608;2023-10-31T05:26:49;37.78;;;5.47;;
52188;SDS011;38162;45.926;13.608;2023-10-31T05:29:17;29.77;;;4.97;;
52188;SDS011;38162;45.926;13.608;2023-10-31T05:31:43;27.30;;;5.65;;
52188;SDS011;38162;45.926;13.608;2023-10-31T05:34:09;29.55;;;5.80;;
52188;SDS011;38162;45.926;13.608;2023-10-31T05:36:35;39.33;;;5.60;;
52188;SDS011;38162;45.926;13.608;2023-10-31T05:39:00;26.17;;;5.65;;
52188;SDS011;38162;45.926;13.608;2023-10-31T05:41:26;28.38;;;5.43;;
52188;SDS011;38162;45.926;13.608;2023-10-31T05:43:52;34.20;;;5.55;;
52188;SDS011;38162;45.926;13.608;2023-10-31T05:46:18;30.85;;;6.10;;
52188;SDS011;38162;45.926;13.608;2023-10-31T05:48:44;35.20;;;6.53;;
52188;SDS011;38162;45.926;13.608;2023-10-31T05:51:15;25.92;;;4.95;;
52188;SDS011;38162;45.926;13.608;2023-10-31T05:53:42;29.95;;;6.00;;
52188;SDS011;38162;45.926;13.608;2023-10-31T05:56:09;29.52;;;5.32;;
52188;SDS011;38162;45.926;13.608;2023-10-31T05:58:37;32.08;;;6.05;;
52188;SDS011;38162;45.926;13.608;2023-10-31T06:01:04;24.67;;;5.60;;
52188;SDS011;38162;45.926;13.608;2023-10-31T06:03:30;31.77;;;6.63;;
52188;SDS011;38162;45.926;13.608;2023-10-31T06:05:56;32.65;;;7.07;;
52188;SDS011;38162;45.926;13.608;2023-10-31T06:08:22;34.75;;;5.00;;
52188;SDS011;38162;45.926;13.608;2023-10-31T06:10:49;26.70;;;5.40;;
52188;SDS011;38162;45.926;13.608;2023-10-31T06:13:16;30.27;;;6.50;;
52188;SDS011;38162;45.926;13.608;2023-10-31T06:15:42;31.10;;;6.10;;
52188;SDS011;38162;45.926;13.608;2023-10-31T06:18:08;32.22;;;6.03;;
52188;SDS011;38162;45.926;13.608;2023-10-31T06:20:33;38.47;;;6.25;;
52188;SDS011;38162;45.926;13.608;2023-10-31T06:23:01;19.77;;;3.80;;
52188;SDS011;38162;45.926;13.608;2023-10-31T06:25:28;7.43;;;2.00;;
52188;SDS011;38162;45.926;13.608;2023-10-31T06:27:54;9.82;;;2.20;;
52188;SDS011;38162;45.926;13.608;2023-10-31T06:30:20;11.20;;;2.42;;
52188;SDS011;38162;45.926;13.608;2023-10-31T06:32:46;15.50;;;3.20;;
52188;SDS011;38162;45.926;13.608;2023-10-31T06:35:12;17.10;;;3.35;;
52188;SDS011;38162;45.926;13.608;2023-10-31T06:37:38;13.10;;;2.25;;
52188;SDS011;38162;45.926;13.608;2023-10-31T06:40:04;14.02;;;3.25;;
52188;SDS011;38162;45.926;13.608;2023-10-31T06:42:30;12.70;;;2.47;;
52188;SDS011;38162;45.926;13.608;2023-10-31T06:44:56;19.00;;;3.10;;
52188;SDS011;38162;45.926;13.608;2023-10-31T06:47:22;11.10;;;2.17;;
52188;SDS011;38162;45.926;13.608;2023-10-31T06:49:48;11.25;;;4.00;;
52188;SDS011;38162;45.926;13.608;2023-10-31T06:52:13;18.45;;;5.90;;
52188;SDS011;38162;45.926;13.608;2023-10-31T06:54:39;12.93;;;3.85;;
52188;SDS011;38162;45.926;13.608;2023-10-31T06:57:05;16.02;;;3.92;;
52188;SDS011;38162;45.926;13.608;2023-10-31T06:59:31;9.02;;;2.80;;
52188;SDS011;38162;45.926;13.608;2023-10-31T07:01:56;13.50;;;2.92;;
52188;SDS011;38162;45.926;13.608;2023-10-31T07:04:22;10.88;;;2.90;;
52188;SDS011;38162;45.926;13.608;2023-10-31T07:06:48;10.43;;;2.25;;
52188;SDS011;38162;45.926;13.608;2023-10-31T07:09:14;11.65;;;2.90;;
52188;SDS011;38162;45.926;13.608;2023-10-31T07:11:43;10.88;;;2.45;;
52188;SDS011;38162;45.926;13.608;2023-10-31T07:14:08;9.18;;;2.63;;
52188;SDS011;38162;45.926;13.608;2023-10-31T07:16:34;8.80;;;2.13;;
52188;SDS011;38162;45.926;13.608;2023-10-31T07:19:00;17.33;;;2.47;;
52188;SDS011;38162;45.926;13.608;2023-10-31T07:21:26;8.45;;;2.20;;
52188;SDS011;38162;45.926;13.608;2023-10-31T07:23:54;11.13;;;2.20;;
52188;SDS011;38162;45.926;13.608;2023-10-31T07:26:21;12.35;;;2.30;;
52188;SDS011;38162;45.926;13.608;2023-10-31T07:28:46;12.98;;;2.45;;
52188;SDS011;38162;45.926;13.608;2023-10-31T07:31:13;14.50;;;2.58;;
52188;SDS011;38162;45.926;13.608;2023-10-31T07:33:40;16.60;;;2.55;;
52188;SDS011;38162;45.926;13.608;2023-10-31T07:36:06;9.48;;;2.40;;
52188;SDS011;38162;45.926;13.608;2023-10-31T07:38:32;11.57;;;2.88;;
52188;SDS011;38162;45.926;13.608;2023-10-31T07:40:58;12.50;;;2.97;;
52188;SDS011;38162;45.926;13.608;2023-10-31T07:43:27;11.18;;;2.13;;
52188;SDS011;38162;45.926;13.608;2023-10-31T07:45:54;11.13;;;1.70;;
52188;SDS011;38162;45.926;13.608;2023-10-31T07:48:20;7.55;;;2.00;;
52188;SDS011;38162;45.926;13.608;2023-10-31T07:50:46;6.75;;;2.22;;
52188;SDS011;38162;45.926;13.608;2023-10-31T07:53:11;10.32;;;2.63;;
52188;SDS011;38162;45.926;13.608;2023-10-31T07:55:40;10.18;;;2.03;;
52188;SDS011;38162;45.926;13.608;2023-10-31T07:58:09;9.60;;;1.88;;
52188;SDS011;38162;45.926;13.608;2023-10-31T08:00:38;8.48;;;1.75;;
52188;SDS011;38162;45.926;13.608;2023-10-31T08:03:04;10.73;;;2.60;;
52188;SDS011;38162;45.926;13.608;2023-10-31T08:05:30;8.57;;;1.60;;
52188;SDS011;38162;45.926;13.608;2023-10-31T08:07:58;14.85;;;3.15;;
52188;SDS011;38162;45.926;13.608;2023-10-31T08:10:24;8.57;;;1.88;;
52188;SDS011;38162;45.926;13.608;2023-10-31T08:12:53;7.03;;;1.50;;
52188;SDS011;38162;45.926;13.608;2023-10-31T08:15:19;11.13;;;1.20;;
52188;SDS011;38162;45.926;13.608;2023-10-31T08:17:45;11.18;;;2.35;;
52188;SDS011;38162;45.926;13.608;2023-10-31T08:20:11;11.60;;;1.83;;
52188;SDS011;38162;45.926;13.608;2023-10-31T08:22:38;13.73;;;2.67;;
52188;SDS011;38162;45.926;13.608;2023-10-31T08:25:04;14.27;;;3.05;;
52188;SDS011;38162;45.926;13.608;2023-10-31T08:27:31;8.30;;;1.23;;
52188;SDS011;38162;45.926;13.608;2023-10-31T08:29:57;11.07;;;1.60;;
52188;SDS011;38162;45.926;13.608;2023-10-31T08:32:23;16.08;;;2.72;;
52188;SDS011;38162;45.926;13.608;2023-10-31T08:34:49;10.07;;;1.67;;
52188;SDS011;38162;45.926;13.608;2023-10-31T08:37:15;8.70;;;1.38;;
52188;SDS011;38162;45.926;13.608;2023-10-31T08:39:42;11.32;;;1.95;;
52188;SDS011;38162;45.926;13.608;2023-10-31T08:42:08;9.10;;;1.27;;
52188;SDS011;38162;45.926;13.608;2023-10-31T08:44:34;6.25;;;1.10;;
52188;SDS011;38162;45.926;13.608;2023-10-31T08:47:02;6.25;;;1.23;;
52188;SDS011;38162;45.926;13.608;2023-10-31T08:49:29;8.70;;;1.50;;
52188;SDS011;38162;45.926;13.608;2023-10-31T08:51:57;7.35;;;1.60;;
52188;SDS011;38162;45.926;13.608;2023-10-31T08:54:23;8.57;;;1.50;;
52188;SDS011;38162;45.926;13.608;2023-10-31T08:56:49;8.73;;;1.30;;
52188;SDS011;38162;45.926;13.608;2023-10-31T08:59:15;8.05;;;1.48;;
52188;SDS011;38162;45.926;13.608;2023-10-31T09:01:41;13.43;;;1.33;;
52188;SDS011;38162;45.926;13.608;2023-10-31T09:04:07;7.60;;;1.23;;
52188;SDS011;38162;45.926;13.608;2023-10-31T09:06:32;8.88;;;1.02;;
52188;SDS011;38162;45.926;13.608;2023-10-31T09:09:01;6.70;;;1.15;;
52188;SDS011;38162;45.926;13.608;2023-10-31T09:11:32;9.77;;;1.20;;
52188;SDS011;38162;45.926;13.608;2023-10-31T09:13:58;10.45;;;1.23;;
52188;SDS011;38162;45.926;13.608;2023-10-31T09:16:30;6.32;;;1.15;;
52188;SDS011;38162;45.926;13.608;2023-10-31T09:18:56;6.40;;;1.08;;
52188;SDS011;38162;45.926;13.608;2023-10-31T09:21:21;5.65;;;0.68;;
52188;SDS011;38162;45.926;13.608;2023-10-31T09:23:47;8.95;;;1.90;;
52188;SDS011;38162;45.926;13.608;2023-10-31T09:26:13;6.25;;;1.20;;
52188;SDS011;38162;45.926;13.608;2023-10-31T09:28:39;5.40;;;1.00;;
52188;SDS011;38162;45.926;13.608;2023-10-31T09:31:07;5.75;;;0.98;;
52188;SDS011;38162;45.926;13.608;2023-10-31T09:33:34;3.83;;;0.82;;
52188;SDS011;38162;45.926;13.608;2023-10-31T09:36:00;5.68;;;1.75;;
52188;SDS011;38162;45.926;13.608;2023-10-31T09:38:26;14.07;;;1.40;;
52188;SDS011;38162;45.926;13.608;2023-10-31T09:40:53;7.80;;;1.05;;
52188;SDS011;38162;45.926;13.608;2023-10-31T09:43:20;3.17;;;0.73;;
52188;SDS011;38162;45.926;13.608;2023-10-31T09:45:45;7.97;;;0.98;;
52188;SDS011;38162;45.926;13.608;2023-10-31T09:48:12;4.78;;;0.80;;
52188;SDS011;38162;45.926;13.608;2023-10-31T09:50:38;6.60;;;0.90;;
52188;SDS011;38162;45.926;13.608;2023-10-31T09:53:06;4.72;;;0.90;;
52188;SDS011;38162;45.926;13.608;2023-10-31T09:55:33;2.67;;;0.90;;
52188;SDS011;38162;45.926;13.608;2023-10-31T09:58:00;6.82;;;1.20;;
52188;SDS011;38162;45.926;13.608;2023-10-31T10:00:26;8.10;;;1.33;;
52188;SDS011;38162;45.926;13.608;2023-10-31T10:02:52;6.60;;;0.90;;
52188;SDS011;38162;45.926;13.608;2023-10-31T10:05:23;4.93;;;1.10;;
52188;SDS011;38162;45.926;13.608;2023-10-31T10:07:50;7.30;;;1.10;;
52188;SDS011;38162;45.926;13.608;2023-10-31T10:10:20;5.95;;;0.90;;
52188;SDS011;38162;45.926;13.608;2023-10-31T10:12:46;7.28;;;1.42;;
52188;SDS011;38162;45.926;13.608;2023-10-31T10:15:12;12.85;;;1.58;;
52188;SDS011;38162;45.926;13.608;2023-10-31T10:17:38;8.70;;;1.50;;
52188;SDS011;38162;45.926;13.608;2023-10-31T10:20:13;8.52;;;1.27;;
52188;SDS011;38162;45.926;13.608;2023-10-31T10:22:41;11.30;;;2.03;;
52188;SDS011;38162;45.926;13.608;2023-10-31T10:25:12;6.65;;;1.33;;
52188;SDS011;38162;45.926;13.608;2023-10-31T10:27:43;12.13;;;1.90;;
52188;SDS011;38162;45.926;13.608;2023-10-31T10:30:10;12.95;;;1.70;;
52188;SDS011;38162;45.926;13.608;2023-10-31T10:32:40;15.95;;;2.70;;
52188;SDS011;38162;45.926;13.608;2023-10-31T10:35:09;9.40;;;2.08;;
52188;SDS011;38162;45.926;13.608;2023-10-31T10:37:38;12.23;;;1.55;;
52188;SDS011;38162;45.926;13.608;2023-10-31T10:40:08;11.50;;;1.83;;
52188;SDS011;38162;45.926;13.608;2023-10-31T10:42:40;12.07;;;2.10;;
52188;SDS011;38162;45.926;13.608;2023-10-31T10:45:13;7.72;;;1.90;;
52188;SDS011;38162;45.926;13.608;2023-10-31T10:47:41;5.10;;;1.30;;
52188;SDS011;38162;45.926;13.608;2023-10-31T10:50:14;10.20;;;1.63;;
52188;SDS011;38162;45.926;13.608;2023-10-31T10:52:44;7.15;;;1.27;;
52188;SDS011;38162;45.926;13.608;2023-10-31T10:55:26;8.10;;;1.40;;
52188;SDS011;38162;45.926;13.608;2023-10-31T10:58:03;7.45;;;1.50;;
52188;SDS011;38162;45.926;13.608;2023-10-31T11:00:36;9.13;;;1.77;;
52188;SDS011;38162;45.926;13.608;2023-10-31T11:03:02;8.73;;;1.60;;
52188;SDS011;38162;45.926;13.608;2023-10-31T11:05:29;7.05;;;1.92;;
52188;SDS011;38162;45.926;13.608;2023-10-31T11:07:58;12.85;;;2.40;;
52188;SDS011;38162;45.926;13.608;2023-10-31T11:10:25;10.02;;;1.80;;
52188;SDS011;38162;45.926;13.608;2023-10-31T11:12:52;9.35;;;1.90;;
52188;SDS011;38162;45.926;13.608;2023-10-31T11:15:18;11.98;;;1.70;;
52188;SDS011;38162;45.926;13.608;2023-10-31T11:17:48;9.30;;;1.60;;
52188;SDS011;38162;45.926;13.608;2023-10-31T11:20:15;11.05;;;1.90;;
52188;SDS011;38162;45.926;13.608;2023-10-31T11:22:44;9.73;;;1.55;;
52188;SDS011;38162;45.926;13.608;2023-10-31T11:25:15;13.98;;;1.70;;
52188;SDS011;38162;45.926;13.608;2023-10-31T11:27:54;9.52;;;1.85;;
52188;SDS011;38162;45.926;13.608;2023-10-31T11:30:27;10.00;;;1.33;;
52188;SDS011;38162;45.926;13.608;2023-10-31T11:33:00;8.90;;;1.20;;
52188;SDS011;38162;45.926;13.608;2023-10-31T11:35:34;5.97;;;1.35;;
52188;SDS011;38162;45.926;13.608;2023-10-31T11:38:04;13.85;;;2.42;;
52188;SDS011;38162;45.926;13.608;2023-10-31T11:40:36;6.32;;;1.17;;
52188;SDS011;38162;45.926;13.608;2023-10-31T11:43:03;8.95;;;1.33;;
52188;SDS011;38162;45.926;13.608;2023-10-31T11:48:15;6.43;;;1.02;;
52188;SDS011;38162;45.926;13.608;2023-10-31T11:50:41;5.38;;;0.90;;
52188;SDS011;38162;45.926;13.608;2023-10-31T11:53:17;6.30;;;0.82;;
52188;SDS011;38162;45.926;13.608;2023-10-31T11:55:43;5.90;;;0.82;;
52188;SDS011;38162;45.926;13.608;2023-10-31T12:00:45;5.35;;;0.80;;
52188;SDS011;38162;45.926;13.608;2023-10-31T12:03:20;4.15;;;0.90;;
52188;SDS011;38162;45.926;13.608;2023-10-31T12:05:59;5.05;;;0.98;;
52188;SDS011;38162;45.926;13.608;2023-10-31T12:08:28;6.18;;;1.38;;
52188;SDS011;38162;45.926;13.608;2023-10-31T12:11:14;6.97;;;0.88;;
52188;SDS011;38162;45.926;13.608;2023-10-31T12:13:42;5.57;;;0.88;;
52188;SDS011;38162;45.926;13.608;2023-10-31T12:16:22;3.28;;;0.80;;
52188;SDS011;38162;45.926;13.608;2023-10-31T12:19:03;10.10;;;0.85;;
52188;SDS011;38162;45.926;13.608;2023-10-31T12:24:15;7.10;;;1.05;;
52188;SDS011;38162;45.926;13.608;2023-10-31T12:26:42;7.05;;;1.00;;
52188;SDS011;38162;45.926;13.608;2023-10-31T12:29:14;11.15;;;1.30;;
52188;SDS011;38162;45.926;13.608;2023-10-31T12:34:16;7.65;;;1.08;;
52188;SDS011;38162;45.926;13.608;2023-10-31T12:36:43;6.00;;;0.90;;
52188;SDS011;38162;45.926;13.608;2023-10-31T12:39:11;8.50;;;1.30;;
52188;SDS011;38162;45.926;13.608;2023-10-31T12:41:38;8.98;;;1.73;;
52188;SDS011;38162;45.926;13.608;2023-10-31T12:44:05;5.45;;;0.90;;
52188;SDS011;38162;45.926;13.608;2023-10-31T12:46:35;7.15;;;0.90;;
52188;SDS011;38162;45.926;13.608;2023-10-31T12:49:03;4.63;;;1.02;;
52188;SDS011;38162;45.926;13.608;2023-10-31T12:51:29;6.88;;;0.90;;
52188;SDS011;38162;45.926;13.608;2023-10-31T12:53:55;12.57;;;1.05;;
52188;SDS011;38162;45.926;13.608;2023-10-31T12:56:40;10.02;;;1.67;;
52188;SDS011;38162;45.926;13.608;2023-10-31T12:59:10;7.53;;;0.98;;
52188;SDS011;38162;45.926;13.608;2023-10-31T13:01:42;7.28;;;1.08;;
52188;SDS011;38162;45.926;13.608;2023-10-31T13:04:08;3.90;;;0.87;;
52188;SDS011;38162;45.926;13.608;2023-10-31T13:06:35;5.28;;;0.80;;
52188;SDS011;38162;45.926;13.608;2023-10-31T13:09:01;6.80;;;1.40;;
52188;SDS011;38162;45.926;13.608;2023-10-31T13:11:30;7.90;;;1.98;;
52188;SDS011;38162;45.926;13.608;2023-10-31T13:13:56;8.27;;;1.23;;
52188;SDS011;38162;45.926;13.608;2023-10-31T13:16:31;7.72;;;1.23;;
52188;SDS011;38162;45.926;13.608;2023-10-31T13:18:58;11.23;;;1.40;;
52188;SDS011;38162;45.926;13.608;2023-10-31T13:21:27;11.55;;;1.60;;
52188;SDS011;38162;45.926;13.608;2023-10-31T13:23:53;6.32;;;1.40;;
52188;SDS011;38162;45.926;13.608;2023-10-31T13:26:19;7.80;;;1.77;;
52188;SDS011;38162;45.926;13.608;2023-10-31T13:28:45;5.03;;;1.00;;
52188;SDS011;38162;45.926;13.608;2023-10-31T13:31:11;5.70;;;1.08;;
52188;SDS011;38162;45.926;13.608;2023-10-31T13:33:39;8.05;;;1.42;;
52188;SDS011;38162;45.926;13.608;2023-10-31T13:36:05;6.25;;;1.60;;
52188;SDS011;38162;45.926;13.608;2023-10-31T13:38:34;12.27;;;1.50;;
52188;SDS011;38162;45.926;13.608;2023-10-31T13:41:04;5.40;;;1.50;;
52188;SDS011;38162;45.926;13.608;2023-10-31T13:43:29;8.98;;;1.92;;
52188;SDS011;38162;45.926;13.608;2023-10-31T13:45:55;5.72;;;1.40;;
52188;SDS011;38162;45.926;13.608;2023-10-31T13:48:24;6.35;;;1.00;;
52188;SDS011;38162;45.926;13.608;2023-10-31T13:50:51;7.72;;;1.13;;
52188;SDS011;38162;45.926;13.608;2023-10-31T13:53:19;7.00;;;1.60;;
52188;SDS011;38162;45.926;13.608;2023-10-31T13:55:45;7.30;;;0.88;;
52188;SDS011;38162;45.926;13.608;2023-10-31T13:58:11;7.70;;;1.55;;
52188;SDS011;38162;45.926;13.608;2023-10-31T14:00:37;9.75;;;1.08;;
52188;SDS011;38162;45.926;13.608;2023-10-31T14:03:03;9.18;;;1.20;;
52188;SDS011;38162;45.926;13.608;2023-10-31T14:05:29;4.70;;;0.90;;
52188;SDS011;38162;45.926;13.608;2023-10-31T14:07:58;8.45;;;1.13;;
52188;SDS011;38162;45.926;13.608;2023-10-31T14:10:25;7.63;;;1.17;;
52188;SDS011;38162;45.926;13.608;2023-10-31T14:12:51;6.50;;;1.40;;
52188;SDS011;38162;45.926;13.608;2023-10-31T14:15:18;9.20;;;1.05;;
52188;SDS011;38162;45.926;13.608;2023-10-31T14:17:48;4.65;;;0.88;;
52188;SDS011;38162;45.926;13.608;2023-10-31T14:20:14;5.50;;;1.00;;
52188;SDS011;38162;45.926;13.608;2023-10-31T14:22:40;5.60;;;1.42;;
52188;SDS011;38162;45.926;13.608;2023-10-31T14:25:11;7.57;;;1.00;;
52188;SDS011;38162;45.926;13.608;2023-10-31T14:27:37;5.40;;;1.30;;
52188;SDS011;38162;45.926;13.608;2023-10-31T14:30:04;10.55;;;1.48;;
52188;SDS011;38162;45.926;13.608;2023-10-31T14:32:33;5.38;;;1.27;;
52188;SDS011;38162;45.926;13.608;2023-10-31T14:34:59;7.93;;;1.40;;